Annandale, New York
Current Conditions -  °F | °C
As of 6:53 AM on Thursday 23 Oct 2014 (Local Time) from KPOU Reporting Station
Light Rain Light Rain  
Wind Chill:   Ceiling: 1400
Heat Index:   Visibility: 7mi
Dew Point:   Wind: 13mph
Humidity: 86%   Direction: 350°N
Pressure: 29.75"   Gusts: 21mph
Location:  42.0124°N, 73.8998°W
Report Text: KPOU 231053Z 35011G18KT 7SM -RA OVC014 09/07 A2975 RMK AO2 RAB04 SLP072 P0002 T00940072
Loading
Personal Weather Stations






























Interactive Weather Map New forecast layout! Learn more

10-Day Weather Forecast

Advertisements
Track Severe Weather on mobile